createdAt,value
2022-11-07T00:01:37.966Z,0.90
2022-11-07T00:04:04.919Z,0.70
2022-11-07T00:06:31.738Z,0.87
2022-11-07T00:08:59.062Z,0.77
2022-11-07T00:11:25.813Z,1.00
2022-11-07T00:13:52.446Z,0.77
2022-11-07T00:16:19.169Z,0.90
2022-11-07T00:18:45.799Z,0.80
2022-11-07T00:21:12.454Z,0.80
2022-11-07T00:23:42.432Z,0.80
2022-11-07T00:26:12.769Z,0.67
2022-11-07T00:28:41.557Z,0.90
2022-11-07T00:31:10.098Z,0.67
2022-11-07T00:33:36.778Z,1.17
2022-11-07T00:36:03.752Z,0.90
2022-11-07T00:38:30.561Z,0.93
2022-11-07T00:41:02.435Z,0.60
2022-11-07T00:43:29.386Z,0.70
2022-11-07T00:45:56.589Z,0.87
2022-11-07T00:48:23.475Z,0.77
2022-11-07T00:50:50.097Z,0.60
2022-11-07T00:53:17.181Z,0.70
2022-11-07T00:55:44.124Z,0.80
2022-11-07T00:58:13.932Z,0.83
2022-11-07T01:00:41.701Z,0.60
2022-11-07T01:03:27.448Z,1.00
2022-11-07T01:06:02.270Z,0.70
2022-11-07T01:08:30.002Z,0.50
2022-11-07T01:10:57.698Z,0.90
2022-11-07T01:13:24.996Z,0.90
2022-11-07T01:15:52.163Z,1.07
2022-11-07T01:18:18.755Z,0.90
2022-11-07T01:20:45.430Z,0.90
2022-11-07T01:23:12.155Z,0.73
2022-11-07T01:25:40.076Z,0.80
2022-11-07T01:28:07.513Z,0.70
2022-11-07T01:30:37.734Z,0.57
2022-11-07T01:33:04.436Z,0.80
2022-11-07T01:35:36.027Z,0.60
2022-11-07T01:38:03.135Z,0.60
2022-11-07T01:40:29.814Z,0.97
2022-11-07T01:42:56.438Z,0.60
2022-11-07T01:45:29.693Z,0.60
2022-11-07T01:48:00.457Z,0.60
2022-11-07T01:50:27.687Z,0.60
2022-11-07T01:52:56.183Z,0.80
2022-11-07T01:55:29.277Z,0.80
2022-11-07T01:58:04.255Z,0.80
2022-11-07T02:00:31.653Z,0.60
2022-11-07T02:03:10.180Z,0.70
2022-11-07T02:06:05.311Z,0.80
2022-11-07T02:08:34.081Z,0.60
2022-11-07T02:11:02.675Z,0.80
2022-11-07T02:13:31.885Z,0.80
2022-11-07T02:16:05.563Z,0.60
2022-11-07T02:18:35.434Z,0.70
2022-11-07T02:21:26.584Z,0.60
2022-11-07T02:24:04.352Z,0.70
2022-11-07T02:26:31.451Z,0.67
2022-11-07T02:28:58.881Z,0.80
2022-11-07T02:31:25.651Z,0.80
2022-11-07T02:33:52.245Z,0.90
2022-11-07T02:36:23.235Z,0.60
2022-11-07T02:38:57.447Z,1.00
2022-11-07T02:41:30.282Z,0.80
2022-11-07T02:44:04.742Z,0.90
2022-11-07T02:46:32.700Z,0.80
2022-11-07T02:49:00.884Z,0.80
2022-11-07T02:51:27.805Z,0.77
2022-11-07T02:53:54.612Z,0.90
2022-11-07T02:56:22.198Z,1.00
2022-11-07T02:58:49.060Z,0.80
2022-11-07T03:01:16.292Z,0.80
2022-11-07T03:03:45.463Z,0.63
2022-11-07T03:06:21.220Z,0.70
2022-11-07T03:08:48.125Z,0.73
2022-11-07T03:11:19.533Z,0.80
2022-11-07T03:13:47.737Z,0.67
2022-11-07T03:16:15.358Z,0.60
2022-11-07T03:18:41.946Z,0.70
2022-11-07T03:21:08.632Z,0.60
2022-11-07T03:23:36.564Z,0.80
2022-11-07T03:26:06.142Z,0.80
2022-11-07T03:28:33.408Z,0.60
2022-11-07T03:31:01.991Z,0.73
2022-11-07T03:33:29.967Z,0.70
2022-11-07T03:35:56.578Z,0.60
2022-11-07T03:38:23.175Z,0.63
2022-11-07T03:40:49.784Z,0.80
2022-11-07T03:43:16.928Z,0.60
2022-11-07T03:45:43.748Z,0.70
2022-11-07T03:48:10.349Z,0.80
2022-11-07T03:50:36.994Z,0.87
2022-11-07T03:53:03.611Z,0.53
2022-11-07T03:55:30.203Z,0.60
2022-11-07T03:57:56.792Z,0.70
2022-11-07T04:00:23.713Z,0.90
2022-11-07T04:02:50.453Z,0.90
2022-11-07T04:05:17.390Z,0.60
2022-11-07T04:07:44.181Z,0.90
2022-11-07T04:10:10.781Z,0.70
2022-11-07T04:12:56.036Z,0.70
2022-11-07T04:15:41.372Z,0.97
2022-11-07T04:18:07.958Z,1.00
2022-11-07T04:20:34.569Z,0.77
2022-11-07T04:23:01.182Z,0.90
2022-11-07T04:25:46.376Z,0.80
2022-11-07T04:28:16.146Z,0.90
2022-11-07T04:30:42.798Z,0.70
2022-11-07T04:33:09.883Z,0.63
2022-11-07T04:35:36.483Z,0.73
2022-11-07T04:38:03.115Z,0.80
2022-11-07T04:40:30.297Z,0.90
2022-11-07T04:42:56.928Z,0.90
2022-11-07T04:45:23.911Z,0.70
2022-11-07T04:47:50.531Z,0.73
2022-11-07T04:50:19.625Z,1.00
2022-11-07T04:52:47.405Z,0.70
2022-11-07T04:55:21.031Z,0.90
2022-11-07T04:57:48.141Z,0.73
2022-11-07T05:00:15.777Z,0.60
2022-11-07T05:02:42.514Z,0.60
2022-11-07T05:05:09.850Z,0.70
2022-11-07T05:07:36.683Z,0.87
2022-11-07T05:10:09.592Z,0.73
2022-11-07T05:12:38.525Z,0.60
2022-11-07T05:15:05.712Z,1.00
2022-11-07T05:17:32.309Z,0.77
2022-11-07T05:19:58.930Z,0.70
2022-11-07T05:22:44.019Z,0.60
2022-11-07T05:25:10.733Z,0.63
2022-11-07T05:27:37.358Z,0.60
2022-11-07T05:30:05.259Z,1.13
2022-11-07T05:32:37.901Z,0.90
2022-11-07T05:35:05.646Z,0.80
2022-11-07T05:37:32.265Z,1.10
2022-11-07T05:39:58.847Z,0.70
2022-11-07T05:42:25.483Z,0.80
2022-11-07T05:44:52.077Z,0.90
2022-11-07T05:47:18.665Z,0.90
2022-11-07T05:49:45.469Z,0.70
2022-11-07T05:52:12.050Z,0.73
2022-11-07T05:54:38.613Z,0.93
2022-11-07T05:57:05.262Z,0.90
2022-11-07T05:59:31.865Z,1.57
2022-11-07T06:01:58.576Z,1.30
2022-11-07T06:04:25.211Z,0.97
2022-11-07T06:06:51.824Z,0.90
2022-11-07T06:09:18.417Z,0.97
2022-11-07T06:11:48.213Z,1.03
2022-11-07T06:14:14.849Z,0.70
2022-11-07T06:16:41.440Z,0.97
2022-11-07T06:19:08.069Z,1.10
2022-11-07T06:21:34.923Z,0.90
2022-11-07T06:24:01.788Z,0.70
2022-11-07T06:26:28.377Z,0.90
2022-11-07T06:28:54.977Z,1.03
2022-11-07T06:31:21.767Z,0.83
2022-11-07T06:33:51.567Z,0.80
2022-11-07T06:36:18.680Z,0.90
2022-11-07T06:38:45.332Z,0.80
2022-11-07T06:41:14.308Z,0.90
2022-11-07T06:43:41.614Z,1.10
2022-11-07T06:46:11.461Z,1.40
2022-11-07T06:48:38.167Z,1.20
2022-11-07T06:51:06.516Z,1.10
2022-11-07T06:53:33.298Z,0.90
2022-11-07T06:56:01.626Z,1.03
2022-11-07T06:58:28.399Z,1.20
2022-11-07T07:00:58.997Z,1.00
2022-11-07T07:03:25.716Z,0.60
2022-11-07T07:05:52.342Z,0.80
2022-11-07T07:08:19.019Z,0.80
2022-11-07T07:10:46.096Z,1.13
2022-11-07T07:13:14.682Z,0.90
2022-11-07T07:15:50.964Z,1.20
2022-11-07T07:18:19.005Z,0.90
2022-11-07T07:20:46.555Z,1.03
2022-11-07T07:23:13.206Z,0.87
2022-11-07T07:25:39.826Z,0.93
2022-11-07T07:28:06.460Z,1.00
2022-11-07T07:30:33.277Z,1.03
2022-11-07T07:32:59.920Z,0.90
2022-11-07T07:35:26.701Z,0.90
2022-11-07T07:37:53.509Z,0.90
2022-11-07T07:40:20.764Z,0.80
2022-11-07T07:42:47.831Z,0.70
2022-11-07T07:45:16.196Z,0.77
2022-11-07T07:47:42.818Z,0.70
2022-11-07T07:50:11.428Z,1.07
2022-11-07T07:52:38.756Z,0.70
2022-11-07T07:55:09.002Z,0.77
2022-11-07T07:57:42.549Z,1.00
2022-11-07T08:00:11.145Z,0.90
2022-11-07T08:02:37.903Z,1.03
2022-11-07T08:05:05.125Z,0.90
2022-11-07T08:07:31.799Z,1.00
2022-11-07T08:10:01.946Z,1.30
2022-11-07T08:12:28.782Z,1.40
2022-11-07T08:14:55.496Z,1.43
2022-11-07T08:17:22.198Z,1.50
2022-11-07T08:19:48.952Z,1.10
2022-11-07T08:22:15.588Z,1.43
2022-11-07T08:24:43.217Z,1.47
2022-11-07T08:27:09.963Z,1.00
2022-11-07T08:29:36.680Z,2.17
2022-11-07T08:32:03.478Z,1.23
2022-11-07T08:34:30.108Z,1.10
2022-11-07T08:36:56.755Z,1.07
2022-11-07T08:39:23.425Z,0.90
2022-11-07T08:41:50.081Z,1.37
2022-11-07T08:44:16.834Z,0.90
2022-11-07T08:46:43.516Z,1.27
2022-11-07T08:49:10.281Z,1.47
2022-11-07T08:51:36.943Z,1.37
2022-11-07T08:54:03.778Z,1.30
2022-11-07T08:56:30.726Z,1.20
2022-11-07T08:58:57.349Z,1.00
2022-11-07T09:01:24.108Z,1.10
2022-11-07T09:03:57.655Z,1.20
2022-11-07T09:06:24.821Z,1.00
2022-11-07T09:08:51.480Z,1.27
2022-11-07T09:11:19.190Z,1.03
2022-11-07T09:13:47.184Z,1.13
2022-11-07T09:16:17.291Z,1.10
2022-11-07T09:18:45.194Z,1.53
2022-11-07T09:21:13.711Z,0.83
2022-11-07T09:23:43.192Z,1.07
2022-11-07T09:26:09.959Z,1.37
2022-11-07T09:28:36.644Z,1.13
2022-11-07T09:31:05.464Z,1.23
2022-11-07T09:33:32.513Z,1.60
2022-11-07T09:36:03.875Z,1.13
2022-11-07T09:38:30.926Z,1.57
2022-11-07T09:41:06.686Z,1.33
2022-11-07T09:44:08.248Z,1.53
2022-11-07T09:46:49.943Z,1.50
2022-11-07T09:49:18.814Z,1.30
2022-11-07T09:51:56.141Z,1.70
2022-11-07T09:54:27.527Z,1.33
2022-11-07T09:56:57.975Z,1.43
2022-11-07T09:59:39.403Z,1.43
2022-11-07T10:02:18.293Z,1.40
2022-11-07T10:04:46.683Z,1.20
2022-11-07T10:07:42.378Z,1.70
2022-11-07T10:10:46.680Z,1.23
2022-11-07T10:13:28.561Z,1.87
2022-11-07T10:16:11.569Z,1.50
2022-11-07T10:18:59.792Z,1.60
2022-11-07T10:21:57.834Z,1.57
2022-11-07T10:25:02.324Z,1.23
2022-11-07T10:27:29.034Z,1.30
2022-11-07T10:29:56.267Z,1.10
2022-11-07T10:32:39.709Z,1.40
2022-11-07T10:35:26.651Z,1.40
2022-11-07T10:38:14.822Z,1.63
2022-11-07T10:40:42.877Z,1.47
2022-11-07T10:43:16.995Z,1.47
2022-11-07T10:45:44.361Z,1.23
2022-11-07T10:48:14.414Z,1.20
2022-11-07T10:50:50.215Z,1.23
2022-11-07T10:53:20.100Z,1.40
2022-11-07T10:55:49.068Z,1.03
2022-11-07T10:58:23.831Z,1.33
2022-11-07T11:00:59.272Z,1.17
2022-11-07T11:03:43.112Z,1.37
2022-11-07T11:06:24.007Z,1.10
2022-11-07T11:08:52.278Z,0.87
2022-11-07T11:11:21.730Z,0.93
2022-11-07T11:13:49.068Z,0.90
2022-11-07T11:16:27.795Z,0.73
2022-11-07T11:18:57.778Z,0.90
2022-11-07T11:21:25.166Z,0.97
2022-11-07T11:23:54.283Z,1.00
2022-11-07T11:26:20.857Z,0.80
2022-11-07T11:28:55.042Z,0.87
2022-11-07T11:31:34.868Z,0.90
2022-11-07T11:34:16.957Z,1.20
2022-11-07T11:36:51.403Z,0.50
2022-11-07T11:39:49.892Z,0.90
2022-11-07T11:42:45.270Z,0.97
2022-11-07T11:45:15.026Z,1.10
2022-11-07T11:47:46.685Z,1.10
2022-11-07T11:50:29.651Z,0.80
2022-11-07T11:52:58.035Z,1.07
2022-11-07T11:55:31.550Z,1.00
2022-11-07T11:58:22.354Z,1.20
2022-11-07T12:01:00.738Z,1.00
2022-11-07T12:03:47.865Z,0.70
2022-11-07T12:06:34.653Z,0.80
2022-11-07T12:09:18.572Z,1.07
2022-11-07T12:12:16.214Z,1.10
2022-11-07T12:14:59.221Z,0.87
2022-11-07T12:17:45.128Z,1.20
2022-11-07T12:20:30.309Z,1.40
2022-11-07T12:23:39.305Z,0.90
2022-11-07T12:26:19.204Z,0.87
2022-11-07T12:28:50.620Z,1.10
2022-11-07T12:31:35.587Z,0.80
2022-11-07T12:34:13.009Z,0.60
2022-11-07T12:36:45.811Z,0.70
2022-11-07T12:39:20.728Z,0.73
2022-11-07T12:42:03.113Z,0.73
2022-11-07T12:44:58.010Z,0.50
2022-11-07T12:47:36.722Z,1.03
2022-11-07T12:50:12.355Z,0.70
2022-11-07T12:53:04.121Z,0.60
2022-11-07T12:55:46.720Z,1.43
2022-11-07T12:58:22.207Z,0.53
2022-11-07T13:00:50.629Z,0.40
2022-11-07T13:03:35.941Z,0.80
2022-11-07T13:06:05.869Z,0.57
2022-11-07T13:08:35.424Z,0.80
2022-11-07T13:11:05.221Z,0.70
2022-11-07T13:14:24.210Z,0.70
2022-11-07T13:17:24.241Z,0.50
2022-11-07T13:20:01.234Z,1.13
2022-11-07T13:22:38.057Z,0.50
2022-11-07T13:25:17.524Z,0.60
2022-11-07T13:27:47.363Z,0.80
2022-11-07T13:30:14.400Z,0.93
2022-11-07T13:32:51.404Z,0.80
2022-11-07T13:35:28.460Z,0.90
2022-11-07T13:38:19.862Z,0.87
2022-11-07T13:41:08.019Z,0.77
2022-11-07T13:43:56.224Z,0.90
2022-11-07T13:46:35.686Z,0.60
2022-11-07T13:49:17.059Z,0.53
2022-11-07T13:51:48.522Z,0.53
2022-11-07T13:54:27.286Z,0.90
2022-11-07T13:56:59.678Z,0.80
2022-11-07T13:59:47.311Z,0.70
2022-11-07T14:02:25.929Z,1.13
2022-11-07T14:05:22.081Z,0.70
2022-11-07T14:07:57.912Z,0.70
2022-11-07T14:10:48.167Z,0.80
2022-11-07T14:13:41.235Z,0.93
2022-11-07T14:16:19.604Z,1.00
2022-11-07T14:18:56.751Z,1.20
2022-11-07T14:21:27.487Z,0.97
2022-11-07T14:23:54.746Z,0.80
2022-11-07T14:26:33.115Z,1.03
2022-11-07T14:29:00.910Z,1.30
2022-11-07T14:31:36.365Z,0.73
2022-11-07T14:34:13.604Z,0.90
2022-11-07T14:36:58.002Z,0.70
2022-11-07T14:39:27.490Z,1.00
2022-11-07T14:41:55.800Z,1.07
2022-11-07T14:47:34.601Z,1.07
2022-11-07T14:50:02.470Z,0.90
2022-11-07T14:52:45.052Z,0.70
2022-11-07T14:55:25.723Z,0.70
2022-11-07T14:57:52.703Z,0.73
2022-11-07T15:00:21.811Z,0.77
2022-11-07T15:02:52.498Z,0.70
2022-11-07T15:05:23.754Z,0.60
2022-11-07T15:07:52.196Z,0.47
2022-11-07T15:10:36.644Z,0.60
2022-11-07T15:13:05.741Z,0.73
2022-11-07T15:15:34.755Z,0.47
2022-11-07T15:18:04.249Z,0.80
2022-11-07T15:20:30.837Z,0.70
2022-11-07T15:22:59.099Z,0.70
2022-11-07T15:25:39.669Z,0.60
2022-11-07T15:28:43.114Z,0.63
2022-11-07T15:31:37.508Z,0.70
2022-11-07T15:34:09.455Z,1.30
2022-11-07T15:36:41.146Z,1.70
2022-11-07T15:39:09.597Z,1.87
2022-11-07T15:41:37.185Z,1.60
2022-11-07T15:44:03.998Z,1.40
2022-11-07T15:46:37.539Z,1.50
2022-11-07T15:49:05.341Z,1.23
2022-11-07T15:51:34.472Z,1.00
2022-11-07T15:54:01.129Z,1.33
2022-11-07T15:56:29.139Z,1.17
2022-11-07T15:58:55.948Z,1.20
2022-11-07T16:01:23.378Z,1.40
2022-11-07T16:03:50.109Z,1.80
2022-11-07T16:06:30.630Z,1.43
2022-11-07T16:08:57.874Z,1.83
2022-11-07T16:11:24.839Z,1.93
2022-11-07T16:13:59.267Z,1.60
2022-11-07T16:16:36.696Z,1.60
2022-11-07T16:19:03.437Z,1.60
2022-11-07T16:21:30.176Z,1.37
2022-11-07T16:23:56.813Z,1.37
2022-11-07T16:26:28.797Z,1.50
2022-11-07T16:28:55.527Z,1.80
2022-11-07T16:31:22.197Z,1.70
2022-11-07T16:33:48.982Z,1.33
2022-11-07T16:36:33.765Z,1.40
2022-11-07T16:39:01.633Z,1.50
2022-11-07T16:41:33.016Z,2.57
2022-11-07T16:44:00.176Z,3.80
2022-11-07T16:46:34.194Z,3.30
2022-11-07T16:49:21.949Z,8.70
2022-11-07T16:51:48.657Z,8.03
2022-11-07T16:54:15.318Z,7.00
2022-11-07T16:56:42.854Z,6.33
2022-11-07T16:59:18.818Z,5.37
2022-11-07T17:01:45.679Z,4.07
2022-11-07T17:04:12.429Z,3.40
2022-11-07T17:06:46.127Z,3.30
2022-11-07T17:09:16.783Z,3.43
2022-11-07T17:11:44.379Z,2.00
2022-11-07T17:14:11.504Z,2.13
2022-11-07T17:16:40.159Z,2.97
2022-11-07T17:19:07.041Z,3.00
2022-11-07T17:21:37.886Z,2.87
2022-11-07T17:24:04.861Z,2.90
2022-11-07T17:26:38.868Z,2.60
2022-11-07T17:29:08.090Z,2.20
2022-11-07T17:31:35.066Z,2.20
2022-11-07T17:34:01.784Z,2.57
2022-11-07T17:36:43.044Z,3.70
2022-11-07T17:39:13.908Z,4.97
2022-11-07T17:41:41.541Z,6.27
2022-11-07T17:44:08.881Z,5.33
2022-11-07T17:46:36.967Z,3.33
2022-11-07T17:49:09.021Z,3.30
2022-11-07T17:51:36.144Z,3.00
2022-11-07T17:54:04.135Z,3.00
2022-11-07T17:56:32.008Z,2.50
2022-11-07T17:59:01.805Z,2.60
2022-11-07T18:01:32.528Z,2.17
2022-11-07T18:03:59.954Z,2.03
2022-11-07T18:06:27.574Z,1.87
2022-11-07T18:08:56.885Z,2.07
2022-11-07T18:11:26.858Z,2.10
2022-11-07T18:13:55.290Z,2.27
2022-11-07T18:16:25.416Z,2.60
2022-11-07T18:18:52.358Z,3.00
2022-11-07T18:21:19.643Z,3.23
2022-11-07T18:23:46.560Z,2.90
2022-11-07T18:26:20.740Z,2.90
2022-11-07T18:28:49.795Z,3.77
2022-11-07T18:31:19.465Z,4.00
2022-11-07T18:33:46.706Z,1.90
2022-11-07T18:36:18.038Z,2.50
2022-11-07T18:38:45.480Z,1.73
2022-11-07T18:41:19.346Z,1.90
2022-11-07T18:43:46.356Z,2.30
2022-11-07T18:46:15.103Z,1.70
2022-11-07T18:48:42.468Z,1.77
2022-11-07T18:51:16.317Z,1.70
2022-11-07T18:53:43.545Z,2.63
2022-11-07T18:56:12.138Z,2.97
2022-11-07T18:58:41.221Z,3.37
2022-11-07T19:01:19.114Z,3.70
2022-11-07T19:03:47.208Z,3.03
2022-11-07T19:06:16.964Z,3.10
2022-11-07T19:08:44.938Z,3.03
2022-11-07T19:11:14.296Z,2.83
2022-11-07T19:13:42.743Z,3.70
2022-11-07T19:16:11.425Z,3.63
2022-11-07T19:18:38.845Z,3.30
2022-11-07T19:21:05.817Z,3.27
2022-11-07T19:23:35.236Z,3.07
2022-11-07T19:26:02.463Z,3.00
2022-11-07T19:28:29.284Z,3.00
2022-11-07T19:30:55.919Z,2.63
2022-11-07T19:33:22.705Z,3.03
2022-11-07T19:36:02.023Z,2.57
2022-11-07T19:38:30.397Z,2.57
2022-11-07T19:40:57.625Z,2.53
2022-11-07T19:43:24.420Z,2.53
2022-11-07T19:45:51.307Z,3.07
2022-11-07T19:48:19.083Z,3.73
2022-11-07T19:50:46.185Z,3.97
2022-11-07T19:53:12.964Z,4.37
2022-11-07T19:55:39.758Z,4.10
2022-11-07T19:58:06.529Z,5.00
2022-11-07T20:00:33.353Z,5.10
2022-11-07T20:03:00.251Z,5.57
2022-11-07T20:05:31.210Z,4.73
2022-11-07T20:08:02.185Z,4.53
2022-11-07T20:10:31.711Z,4.40
2022-11-07T20:12:58.417Z,3.80
2022-11-07T20:15:25.042Z,4.43
2022-11-07T20:17:51.792Z,3.97
2022-11-07T20:20:18.515Z,3.83
2022-11-07T20:22:49.116Z,4.00
2022-11-07T20:25:16.053Z,4.50
2022-11-07T20:27:43.027Z,3.93
2022-11-07T20:30:10.697Z,3.90
2022-11-07T20:32:37.610Z,3.70
2022-11-07T20:35:04.792Z,3.60
2022-11-07T20:37:31.656Z,4.30
2022-11-07T20:39:58.545Z,4.07
2022-11-07T20:42:25.294Z,4.23
2022-11-07T20:44:52.228Z,3.90
2022-11-07T20:47:19.301Z,3.93
2022-11-07T20:49:46.064Z,4.27
2022-11-07T20:52:12.820Z,4.63
2022-11-07T20:54:39.671Z,5.00
2022-11-07T20:57:06.774Z,4.90
2022-11-07T20:59:33.564Z,5.37
2022-11-07T21:02:03.631Z,5.50
2022-11-07T21:04:44.583Z,5.93
2022-11-07T21:07:19.687Z,5.00
2022-11-07T21:09:46.778Z,4.97
2022-11-07T21:12:14.079Z,5.37
2022-11-07T21:14:42.201Z,5.13
2022-11-07T21:17:09.886Z,5.20
2022-11-07T21:19:36.720Z,4.67
2022-11-07T21:22:04.242Z,4.97
2022-11-07T21:24:31.787Z,4.47
2022-11-07T21:26:58.821Z,4.63
2022-11-07T21:29:29.556Z,4.43
2022-11-07T21:31:56.741Z,4.43
2022-11-07T21:34:23.763Z,5.27
2022-11-07T21:36:50.600Z,5.20
2022-11-07T21:39:17.840Z,4.93
2022-11-07T21:41:44.735Z,5.43
2022-11-07T21:44:14.212Z,5.43
2022-11-07T21:46:41.159Z,6.43
2022-11-07T21:49:07.919Z,7.27
2022-11-07T21:51:35.444Z,6.93
2022-11-07T21:54:03.753Z,6.07
2022-11-07T21:56:33.342Z,5.40
2022-11-07T21:59:03.078Z,5.37
2022-11-07T22:01:35.206Z,6.17
2022-11-07T22:04:07.437Z,6.17
2022-11-07T22:06:39.530Z,5.87
2022-11-07T22:09:07.653Z,5.33
2022-11-07T22:11:34.673Z,4.90
2022-11-07T22:14:01.447Z,5.50
2022-11-07T22:16:28.517Z,6.03
2022-11-07T22:18:55.217Z,5.67
2022-11-07T22:21:23.045Z,5.40
2022-11-07T22:23:50.599Z,5.07
2022-11-07T22:26:17.168Z,5.20
2022-11-07T22:28:46.037Z,5.70
2022-11-07T22:31:22.397Z,6.13
2022-11-07T22:33:49.780Z,6.07
2022-11-07T22:36:16.875Z,5.17
2022-11-07T22:38:43.926Z,5.80
2022-11-07T22:41:19.569Z,5.60
2022-11-07T22:43:46.916Z,5.47
2022-11-07T22:46:17.580Z,5.70
2022-11-07T22:48:45.487Z,5.30
2022-11-07T22:51:15.340Z,6.00
2022-11-07T22:53:42.233Z,5.97
2022-11-07T22:56:11.174Z,7.30
2022-11-07T22:58:38.358Z,6.27
2022-11-07T23:01:05.924Z,5.73
2022-11-07T23:03:33.375Z,6.07
2022-11-07T23:06:06.110Z,6.57
2022-11-07T23:08:35.636Z,5.90
2022-11-07T23:13:53.705Z,6.33
2022-11-07T23:16:29.789Z,5.90
2022-11-07T23:18:59.886Z,5.57
2022-11-07T23:21:27.065Z,6.33
2022-11-07T23:23:55.775Z,6.93
2022-11-07T23:26:23.323Z,6.90
2022-11-07T23:28:50.433Z,7.03
2022-11-07T23:31:18.213Z,7.77
2022-11-07T23:33:45.203Z,7.07
2022-11-07T23:36:14.833Z,7.43
2022-11-07T23:38:42.198Z,6.73
2022-11-07T23:41:11.693Z,7.13
2022-11-07T23:43:38.656Z,7.70
2022-11-07T23:46:24.890Z,7.20
2022-11-07T23:49:14.422Z,7.47
2022-11-07T23:51:41.975Z,6.77
2022-11-07T23:54:27.357Z,6.23
2022-11-07T23:56:54.071Z,6.80
2022-11-07T23:59:39.302Z,7.17
